sensor_id;sensor_type;location;lat;lon;timestamp;P1;durP1;ratioP1;P2;durP2;ratioP2
29320;SDS011;16323;51.130;6.612;2022-12-05T00:00:15;13.13;;;6.55;;
29320;SDS011;16323;51.130;6.612;2022-12-05T00:02:42;11.90;;;6.50;;
29320;SDS011;16323;51.130;6.612;2022-12-05T00:05:09;11.52;;;6.72;;
29320;SDS011;16323;51.130;6.612;2022-12-05T00:07:37;11.25;;;6.78;;
29320;SDS011;16323;51.130;6.612;2022-12-05T00:10:06;13.00;;;7.03;;
29320;SDS011;16323;51.130;6.612;2022-12-05T00:12:33;11.85;;;6.88;;
29320;SDS011;16323;51.130;6.612;2022-12-05T00:15:00;11.95;;;6.90;;
29320;SDS011;16323;51.130;6.612;2022-12-05T00:17:27;10.10;;;6.28;;
29320;SDS011;16323;51.130;6.612;2022-12-05T00:19:54;11.82;;;6.65;;
29320;SDS011;16323;51.130;6.612;2022-12-05T00:22:21;13.13;;;6.65;;
29320;SDS011;16323;51.130;6.612;2022-12-05T00:24:49;11.38;;;6.57;;
29320;SDS011;16323;51.130;6.612;2022-12-05T00:27:17;11.57;;;6.97;;
29320;SDS011;16323;51.130;6.612;2022-12-05T00:29:43;9.95;;;6.10;;
29320;SDS011;16323;51.130;6.612;2022-12-05T00:32:10;11.90;;;6.93;;
29320;SDS011;16323;51.130;6.612;2022-12-05T00:34:37;10.60;;;6.18;;
29320;SDS011;16323;51.130;6.612;2022-12-05T00:37:04;11.88;;;6.55;;
29320;SDS011;16323;51.130;6.612;2022-12-05T00:39:31;12.23;;;6.85;;
29320;SDS011;16323;51.130;6.612;2022-12-05T00:41:57;12.77;;;6.72;;
29320;SDS011;16323;51.130;6.612;2022-12-05T00:44:26;11.45;;;6.18;;
29320;SDS011;16323;51.130;6.612;2022-12-05T00:46:52;11.48;;;6.55;;
29320;SDS011;16323;51.130;6.612;2022-12-05T00:49:19;12.75;;;6.65;;
29320;SDS011;16323;51.130;6.612;2022-12-05T00:51:46;13.48;;;6.95;;
29320;SDS011;16323;51.130;6.612;2022-12-05T00:54:13;12.68;;;7.07;;
29320;SDS011;16323;51.130;6.612;2022-12-05T00:56:41;12.52;;;7.28;;
29320;SDS011;16323;51.130;6.612;2022-12-05T00:59:10;12.52;;;6.63;;
29320;SDS011;16323;51.130;6.612;2022-12-05T01:01:41;11.77;;;6.60;;
29320;SDS011;16323;51.130;6.612;2022-12-05T01:04:10;12.18;;;7.10;;
29320;SDS011;16323;51.130;6.612;2022-12-05T01:06:38;11.35;;;6.85;;
29320;SDS011;16323;51.130;6.612;2022-12-05T01:09:06;11.45;;;6.47;;
29320;SDS011;16323;51.130;6.612;2022-12-05T01:11:33;11.02;;;6.57;;
29320;SDS011;16323;51.130;6.612;2022-12-05T01:14:00;11.45;;;6.20;;
29320;SDS011;16323;51.130;6.612;2022-12-05T01:16:30;13.38;;;7.50;;
29320;SDS011;16323;51.130;6.612;2022-12-05T01:19:01;11.75;;;6.95;;
29320;SDS011;16323;51.130;6.612;2022-12-05T01:21:30;13.73;;;7.60;;
29320;SDS011;16323;51.130;6.612;2022-12-05T01:23:57;13.43;;;7.32;;
29320;SDS011;16323;51.130;6.612;2022-12-05T01:26:24;12.38;;;6.90;;
29320;SDS011;16323;51.130;6.612;2022-12-05T01:28:51;11.02;;;6.95;;
29320;SDS011;16323;51.130;6.612;2022-12-05T01:31:20;12.40;;;7.28;;
29320;SDS011;16323;51.130;6.612;2022-12-05T01:33:49;11.55;;;6.85;;
29320;SDS011;16323;51.130;6.612;2022-12-05T01:36:18;12.45;;;7.13;;
29320;SDS011;16323;51.130;6.612;2022-12-05T01:38:45;11.55;;;7.13;;
29320;SDS011;16323;51.130;6.612;2022-12-05T01:41:13;13.60;;;7.38;;
29320;SDS011;16323;51.130;6.612;2022-12-05T01:43:52;14.90;;;7.20;;
29320;SDS011;16323;51.130;6.612;2022-12-05T01:46:20;12.95;;;7.18;;
29320;SDS011;16323;51.130;6.612;2022-12-05T01:48:47;11.70;;;6.32;;
29320;SDS011;16323;51.130;6.612;2022-12-05T01:51:15;12.45;;;6.63;;
29320;SDS011;16323;51.130;6.612;2022-12-05T01:53:43;11.57;;;7.00;;
29320;SDS011;16323;51.130;6.612;2022-12-05T01:56:11;12.60;;;7.00;;
29320;SDS011;16323;51.130;6.612;2022-12-05T01:58:39;12.68;;;7.00;;
29320;SDS011;16323;51.130;6.612;2022-12-05T02:01:08;13.15;;;7.30;;
29320;SDS011;16323;51.130;6.612;2022-12-05T02:03:36;13.80;;;7.15;;
29320;SDS011;16323;51.130;6.612;2022-12-05T02:06:03;11.73;;;6.30;;
29320;SDS011;16323;51.130;6.612;2022-12-05T02:08:30;11.52;;;6.50;;
29320;SDS011;16323;51.130;6.612;2022-12-05T02:10:59;12.48;;;6.43;;
29320;SDS011;16323;51.130;6.612;2022-12-05T02:13:30;11.55;;;6.55;;
29320;SDS011;16323;51.130;6.612;2022-12-05T02:16:03;13.50;;;6.93;;
29320;SDS011;16323;51.130;6.612;2022-12-05T02:18:39;10.90;;;6.75;;
29320;SDS011;16323;51.130;6.612;2022-12-05T02:24:18;11.13;;;6.30;;
29320;SDS011;16323;51.130;6.612;2022-12-05T02:27:03;12.30;;;6.85;;
29320;SDS011;16323;51.130;6.612;2022-12-05T02:32:32;12.05;;;6.50;;
29320;SDS011;16323;51.130;6.612;2022-12-05T02:35:09;12.93;;;6.60;;
29320;SDS011;16323;51.130;6.612;2022-12-05T02:37:41;11.48;;;6.57;;
29320;SDS011;16323;51.130;6.612;2022-12-05T02:40:18;11.88;;;6.78;;
29320;SDS011;16323;51.130;6.612;2022-12-05T02:42:51;12.55;;;7.30;;
29320;SDS011;16323;51.130;6.612;2022-12-05T02:45:33;11.85;;;6.85;;
29320;SDS011;16323;51.130;6.612;2022-12-05T02:48:02;12.52;;;6.95;;
29320;SDS011;16323;51.130;6.612;2022-12-05T02:50:30;11.23;;;6.45;;
29320;SDS011;16323;51.130;6.612;2022-12-05T02:53:01;13.13;;;7.45;;
29320;SDS011;16323;51.130;6.612;2022-12-05T02:55:31;10.20;;;6.80;;
29320;SDS011;16323;51.130;6.612;2022-12-05T02:57:59;11.35;;;6.85;;
29320;SDS011;16323;51.130;6.612;2022-12-05T03:00:29;11.55;;;7.03;;
29320;SDS011;16323;51.130;6.612;2022-12-05T03:02:57;10.02;;;6.07;;
29320;SDS011;16323;51.130;6.612;2022-12-05T03:05:28;12.02;;;6.13;;
29320;SDS011;16323;51.130;6.612;2022-12-05T03:08:03;13.07;;;6.38;;
29320;SDS011;16323;51.130;6.612;2022-12-05T03:10:33;11.23;;;6.55;;
29320;SDS011;16323;51.130;6.612;2022-12-05T03:13:03;10.60;;;6.20;;
29320;SDS011;16323;51.130;6.612;2022-12-05T03:15:37;11.40;;;6.50;;
29320;SDS011;16323;51.130;6.612;2022-12-05T03:18:09;12.50;;;5.97;;
29320;SDS011;16323;51.130;6.612;2022-12-05T03:20:41;12.90;;;6.28;;
29320;SDS011;16323;51.130;6.612;2022-12-05T03:23:13;11.77;;;6.82;;
29320;SDS011;16323;51.130;6.612;2022-12-05T03:25:48;12.02;;;6.32;;
29320;SDS011;16323;51.130;6.612;2022-12-05T03:28:20;11.30;;;6.40;;
29320;SDS011;16323;51.130;6.612;2022-12-05T03:30:55;10.52;;;6.40;;
29320;SDS011;16323;51.130;6.612;2022-12-05T03:33:28;11.25;;;6.20;;
29320;SDS011;16323;51.130;6.612;2022-12-05T03:36:02;10.70;;;6.20;;
29320;SDS011;16323;51.130;6.612;2022-12-05T03:38:34;12.30;;;6.57;;
29320;SDS011;16323;51.130;6.612;2022-12-05T03:41:08;9.65;;;5.72;;
29320;SDS011;16323;51.130;6.612;2022-12-05T03:43:44;9.45;;;5.88;;
29320;SDS011;16323;51.130;6.612;2022-12-05T03:46:16;9.43;;;6.25;;
29320;SDS011;16323;51.130;6.612;2022-12-05T03:48:51;12.68;;;6.38;;
29320;SDS011;16323;51.130;6.612;2022-12-05T03:51:21;10.82;;;6.47;;
29320;SDS011;16323;51.130;6.612;2022-12-05T03:53:53;9.68;;;5.75;;
29320;SDS011;16323;51.130;6.612;2022-12-05T03:56:24;11.43;;;6.30;;
29320;SDS011;16323;51.130;6.612;2022-12-05T03:58:57;10.00;;;6.00;;
29320;SDS011;16323;51.130;6.612;2022-12-05T04:01:30;9.15;;;6.20;;
29320;SDS011;16323;51.130;6.612;2022-12-05T04:04:02;9.95;;;5.75;;
29320;SDS011;16323;51.130;6.612;2022-12-05T04:06:34;10.30;;;6.32;;
29320;SDS011;16323;51.130;6.612;2022-12-05T04:09:04;11.95;;;6.60;;
29320;SDS011;16323;51.130;6.612;2022-12-05T04:11:34;11.57;;;6.55;;
29320;SDS011;16323;51.130;6.612;2022-12-05T04:14:05;12.18;;;6.93;;
29320;SDS011;16323;51.130;6.612;2022-12-05T04:16:37;11.05;;;6.90;;
29320;SDS011;16323;51.130;6.612;2022-12-05T04:19:27;9.98;;;6.07;;
29320;SDS011;16323;51.130;6.612;2022-12-05T04:22:17;12.98;;;6.82;;
29320;SDS011;16323;51.130;6.612;2022-12-05T04:24:43;11.73;;;7.03;;
29320;SDS011;16323;51.130;6.612;2022-12-05T04:27:30;12.88;;;6.85;;
29320;SDS011;16323;51.130;6.612;2022-12-05T04:30:05;12.30;;;7.13;;
29320;SDS011;16323;51.130;6.612;2022-12-05T04:32:35;10.90;;;6.75;;
29320;SDS011;16323;51.130;6.612;2022-12-05T04:35:10;11.43;;;6.93;;
29320;SDS011;16323;51.130;6.612;2022-12-05T04:37:44;11.95;;;7.03;;
29320;SDS011;16323;51.130;6.612;2022-12-05T04:40:17;12.57;;;7.03;;
29320;SDS011;16323;51.130;6.612;2022-12-05T04:42:48;12.18;;;6.95;;
29320;SDS011;16323;51.130;6.612;2022-12-05T04:45:18;12.07;;;6.80;;
29320;SDS011;16323;51.130;6.612;2022-12-05T04:47:48;13.77;;;7.20;;
29320;SDS011;16323;51.130;6.612;2022-12-05T04:50:20;13.35;;;7.60;;
29320;SDS011;16323;51.130;6.612;2022-12-05T04:52:50;13.00;;;7.72;;
29320;SDS011;16323;51.130;6.612;2022-12-05T04:55:19;12.15;;;7.40;;
29320;SDS011;16323;51.130;6.612;2022-12-05T04:57:51;10.88;;;7.00;;
29320;SDS011;16323;51.130;6.612;2022-12-05T05:00:23;11.85;;;7.25;;
29320;SDS011;16323;51.130;6.612;2022-12-05T05:02:51;12.73;;;7.50;;
29320;SDS011;16323;51.130;6.612;2022-12-05T05:05:24;14.50;;;7.55;;
29320;SDS011;16323;51.130;6.612;2022-12-05T05:07:53;13.02;;;7.70;;
29320;SDS011;16323;51.130;6.612;2022-12-05T05:10:21;13.30;;;7.70;;
29320;SDS011;16323;51.130;6.612;2022-12-05T05:12:53;13.38;;;7.93;;
29320;SDS011;16323;51.130;6.612;2022-12-05T05:15:20;14.18;;;7.82;;
29320;SDS011;16323;51.130;6.612;2022-12-05T05:17:47;12.38;;;7.10;;
29320;SDS011;16323;51.130;6.612;2022-12-05T05:20:14;13.15;;;7.22;;
29320;SDS011;16323;51.130;6.612;2022-12-05T05:22:52;12.90;;;7.10;;
29320;SDS011;16323;51.130;6.612;2022-12-05T05:25:19;12.20;;;7.05;;
29320;SDS011;16323;51.130;6.612;2022-12-05T05:27:47;13.77;;;7.25;;
29320;SDS011;16323;51.130;6.612;2022-12-05T05:30:15;13.18;;;7.43;;
29320;SDS011;16323;51.130;6.612;2022-12-05T05:32:42;12.38;;;6.55;;
29320;SDS011;16323;51.130;6.612;2022-12-05T05:35:09;12.65;;;7.07;;
29320;SDS011;16323;51.130;6.612;2022-12-05T05:37:36;14.27;;;6.80;;
29320;SDS011;16323;51.130;6.612;2022-12-05T05:40:05;11.45;;;6.63;;
29320;SDS011;16323;51.130;6.612;2022-12-05T05:42:33;10.68;;;6.30;;
29320;SDS011;16323;51.130;6.612;2022-12-05T05:45:00;12.05;;;6.85;;
29320;SDS011;16323;51.130;6.612;2022-12-05T05:47:27;10.88;;;6.65;;
29320;SDS011;16323;51.130;6.612;2022-12-05T05:49:53;9.93;;;5.57;;
29320;SDS011;16323;51.130;6.612;2022-12-05T05:52:20;10.73;;;6.55;;
29320;SDS011;16323;51.130;6.612;2022-12-05T05:54:47;12.95;;;7.32;;
29320;SDS011;16323;51.130;6.612;2022-12-05T05:57:15;10.88;;;6.25;;
29320;SDS011;16323;51.130;6.612;2022-12-05T05:59:42;14.65;;;7.20;;
29320;SDS011;16323;51.130;6.612;2022-12-05T06:02:08;9.32;;;6.00;;
29320;SDS011;16323;51.130;6.612;2022-12-05T06:04:35;10.60;;;6.50;;
29320;SDS011;16323;51.130;6.612;2022-12-05T06:07:02;12.10;;;7.03;;
29320;SDS011;16323;51.130;6.612;2022-12-05T06:09:29;12.10;;;6.25;;
29320;SDS011;16323;51.130;6.612;2022-12-05T06:11:56;12.70;;;6.60;;
29320;SDS011;16323;51.130;6.612;2022-12-05T06:14:24;11.70;;;6.18;;
29320;SDS011;16323;51.130;6.612;2022-12-05T06:16:52;10.75;;;6.50;;
29320;SDS011;16323;51.130;6.612;2022-12-05T06:19:19;11.02;;;6.57;;
29320;SDS011;16323;51.130;6.612;2022-12-05T06:21:47;10.93;;;6.20;;
29320;SDS011;16323;51.130;6.612;2022-12-05T06:24:14;11.35;;;6.97;;
29320;SDS011;16323;51.130;6.612;2022-12-05T06:26:41;11.45;;;6.90;;
29320;SDS011;16323;51.130;6.612;2022-12-05T06:29:08;10.88;;;6.75;;
29320;SDS011;16323;51.130;6.612;2022-12-05T06:31:36;11.45;;;6.97;;
29320;SDS011;16323;51.130;6.612;2022-12-05T06:34:03;11.88;;;6.90;;
29320;SDS011;16323;51.130;6.612;2022-12-05T06:36:29;14.93;;;7.90;;
29320;SDS011;16323;51.130;6.612;2022-12-05T06:38:56;12.70;;;7.80;;
29320;SDS011;16323;51.130;6.612;2022-12-05T06:41:25;13.60;;;7.72;;
29320;SDS011;16323;51.130;6.612;2022-12-05T06:43:52;12.95;;;6.55;;
29320;SDS011;16323;51.130;6.612;2022-12-05T06:46:20;11.07;;;6.63;;
29320;SDS011;16323;51.130;6.612;2022-12-05T06:48:52;12.45;;;7.03;;
29320;SDS011;16323;51.130;6.612;2022-12-05T06:51:19;11.30;;;6.43;;
29320;SDS011;16323;51.130;6.612;2022-12-05T06:53:46;12.68;;;7.10;;
29320;SDS011;16323;51.130;6.612;2022-12-05T06:56:14;12.68;;;7.47;;
29320;SDS011;16323;51.130;6.612;2022-12-05T06:58:44;14.63;;;7.45;;
29320;SDS011;16323;51.130;6.612;2022-12-05T07:01:12;12.40;;;6.72;;
29320;SDS011;16323;51.130;6.612;2022-12-05T07:03:58;11.38;;;6.43;;
29320;SDS011;16323;51.130;6.612;2022-12-05T07:06:26;10.73;;;6.18;;
29320;SDS011;16323;51.130;6.612;2022-12-05T07:08:53;13.80;;;6.97;;
29320;SDS011;16323;51.130;6.612;2022-12-05T07:11:20;12.20;;;6.85;;
29320;SDS011;16323;51.130;6.612;2022-12-05T07:13:46;10.73;;;6.70;;
29320;SDS011;16323;51.130;6.612;2022-12-05T07:16:13;11.63;;;6.93;;
29320;SDS011;16323;51.130;6.612;2022-12-05T07:18:40;11.38;;;7.10;;
29320;SDS011;16323;51.130;6.612;2022-12-05T07:21:11;10.48;;;6.55;;
29320;SDS011;16323;51.130;6.612;2022-12-05T07:23:39;12.43;;;6.93;;
29320;SDS011;16323;51.130;6.612;2022-12-05T07:26:06;11.07;;;6.88;;
29320;SDS011;16323;51.130;6.612;2022-12-05T07:28:35;10.05;;;6.57;;
29320;SDS011;16323;51.130;6.612;2022-12-05T07:31:02;12.90;;;6.88;;
29320;SDS011;16323;51.130;6.612;2022-12-05T07:33:30;13.82;;;7.70;;
29320;SDS011;16323;51.130;6.612;2022-12-05T07:35:57;11.68;;;6.95;;
29320;SDS011;16323;51.130;6.612;2022-12-05T07:38:26;12.57;;;6.75;;
29320;SDS011;16323;51.130;6.612;2022-12-05T07:40:53;12.07;;;6.95;;
29320;SDS011;16323;51.130;6.612;2022-12-05T07:43:20;11.95;;;6.60;;
29320;SDS011;16323;51.130;6.612;2022-12-05T07:45:47;12.35;;;6.88;;
29320;SDS011;16323;51.130;6.612;2022-12-05T07:48:14;11.85;;;6.68;;
29320;SDS011;16323;51.130;6.612;2022-12-05T07:50:41;13.02;;;6.53;;
29320;SDS011;16323;51.130;6.612;2022-12-05T07:53:08;13.15;;;6.80;;
29320;SDS011;16323;51.130;6.612;2022-12-05T07:55:37;10.48;;;6.00;;
29320;SDS011;16323;51.130;6.612;2022-12-05T07:58:04;12.73;;;7.03;;
29320;SDS011;16323;51.130;6.612;2022-12-05T08:00:31;10.98;;;6.25;;
29320;SDS011;16323;51.130;6.612;2022-12-05T08:02:58;10.23;;;6.07;;
29320;SDS011;16323;51.130;6.612;2022-12-05T08:05:27;8.80;;;5.43;;
29320;SDS011;16323;51.130;6.612;2022-12-05T08:07:54;9.35;;;5.82;;
29320;SDS011;16323;51.130;6.612;2022-12-05T08:10:20;9.52;;;6.00;;
29320;SDS011;16323;51.130;6.612;2022-12-05T08:12:49;10.85;;;5.82;;
29320;SDS011;16323;51.130;6.612;2022-12-05T08:15:15;9.70;;;5.78;;
29320;SDS011;16323;51.130;6.612;2022-12-05T08:17:42;10.55;;;6.10;;
29320;SDS011;16323;51.130;6.612;2022-12-05T08:20:09;9.63;;;5.88;;
29320;SDS011;16323;51.130;6.612;2022-12-05T08:22:37;9.95;;;5.85;;
29320;SDS011;16323;51.130;6.612;2022-12-05T08:25:04;10.93;;;5.85;;
29320;SDS011;16323;51.130;6.612;2022-12-05T08:27:31;10.23;;;5.93;;
29320;SDS011;16323;51.130;6.612;2022-12-05T08:29:59;8.88;;;5.60;;
29320;SDS011;16323;51.130;6.612;2022-12-05T08:32:26;9.20;;;5.72;;
29320;SDS011;16323;51.130;6.612;2022-12-05T08:34:53;8.07;;;5.40;;
29320;SDS011;16323;51.130;6.612;2022-12-05T08:37:20;9.63;;;5.65;;
29320;SDS011;16323;51.130;6.612;2022-12-05T08:39:46;11.38;;;5.75;;
29320;SDS011;16323;51.130;6.612;2022-12-05T08:42:13;8.93;;;5.50;;
29320;SDS011;16323;51.130;6.612;2022-12-05T08:44:40;10.48;;;5.70;;
29320;SDS011;16323;51.130;6.612;2022-12-05T08:47:08;10.75;;;5.60;;
29320;SDS011;16323;51.130;6.612;2022-12-05T08:49:35;8.80;;;5.40;;
29320;SDS011;16323;51.130;6.612;2022-12-05T08:52:02;8.85;;;5.47;;
29320;SDS011;16323;51.130;6.612;2022-12-05T08:54:29;9.68;;;6.05;;
29320;SDS011;16323;51.130;6.612;2022-12-05T08:56:55;11.07;;;5.95;;
29320;SDS011;16323;51.130;6.612;2022-12-05T08:59:23;10.82;;;6.13;;
29320;SDS011;16323;51.130;6.612;2022-12-05T09:01:50;11.20;;;6.45;;
29320;SDS011;16323;51.130;6.612;2022-12-05T09:04:18;10.82;;;6.15;;
29320;SDS011;16323;51.130;6.612;2022-12-05T09:06:45;12.48;;;6.10;;
29320;SDS011;16323;51.130;6.612;2022-12-05T09:09:12;10.23;;;6.10;;
29320;SDS011;16323;51.130;6.612;2022-12-05T09:11:40;10.73;;;6.25;;
29320;SDS011;16323;51.130;6.612;2022-12-05T09:14:13;12.48;;;6.50;;
29320;SDS011;16323;51.130;6.612;2022-12-05T09:16:42;12.13;;;6.78;;
29320;SDS011;16323;51.130;6.612;2022-12-05T09:19:11;12.82;;;6.50;;
29320;SDS011;16323;51.130;6.612;2022-12-05T09:21:41;11.93;;;6.75;;
29320;SDS011;16323;51.130;6.612;2022-12-05T09:24:09;10.23;;;6.45;;
29320;SDS011;16323;51.130;6.612;2022-12-05T09:26:36;9.95;;;5.60;;
29320;SDS011;16323;51.130;6.612;2022-12-05T09:29:06;12.73;;;6.68;;
29320;SDS011;16323;51.130;6.612;2022-12-05T09:31:34;10.32;;;6.38;;
29320;SDS011;16323;51.130;6.612;2022-12-05T09:34:01;11.75;;;6.28;;
29320;SDS011;16323;51.130;6.612;2022-12-05T09:36:29;11.75;;;6.13;;
29320;SDS011;16323;51.130;6.612;2022-12-05T09:39:00;12.77;;;6.60;;
29320;SDS011;16323;51.130;6.612;2022-12-05T09:41:37;11.50;;;6.13;;
29320;SDS011;16323;51.130;6.612;2022-12-05T09:44:43;10.80;;;5.53;;
29320;SDS011;16323;51.130;6.612;2022-12-05T09:47:20;11.30;;;6.10;;
29320;SDS011;16323;51.130;6.612;2022-12-05T09:49:59;13.05;;;6.35;;
29320;SDS011;16323;51.130;6.612;2022-12-05T09:52:37;9.20;;;5.95;;
29320;SDS011;16323;51.130;6.612;2022-12-05T09:55:12;11.73;;;6.22;;
29320;SDS011;16323;51.130;6.612;2022-12-05T09:57:42;8.75;;;5.60;;
29320;SDS011;16323;51.130;6.612;2022-12-05T10:00:14;9.50;;;5.97;;
29320;SDS011;16323;51.130;6.612;2022-12-05T10:02:44;13.00;;;6.53;;
29320;SDS011;16323;51.130;6.612;2022-12-05T10:05:20;8.95;;;5.78;;
29320;SDS011;16323;51.130;6.612;2022-12-05T10:07:54;9.73;;;5.75;;
29320;SDS011;16323;51.130;6.612;2022-12-05T10:10:31;9.40;;;5.85;;
29320;SDS011;16323;51.130;6.612;2022-12-05T10:13:13;10.93;;;6.43;;
29320;SDS011;16323;51.130;6.612;2022-12-05T10:15:48;10.73;;;5.90;;
29320;SDS011;16323;51.130;6.612;2022-12-05T10:18:26;9.07;;;5.32;;
29320;SDS011;16323;51.130;6.612;2022-12-05T10:20:58;10.77;;;5.55;;
29320;SDS011;16323;51.130;6.612;2022-12-05T10:23:29;9.13;;;5.95;;
29320;SDS011;16323;51.130;6.612;2022-12-05T10:26:02;10.35;;;6.03;;
29320;SDS011;16323;51.130;6.612;2022-12-05T10:28:31;9.15;;;6.07;;
29320;SDS011;16323;51.130;6.612;2022-12-05T10:31:04;12.60;;;6.75;;
29320;SDS011;16323;51.130;6.612;2022-12-05T10:33:36;10.77;;;6.05;;
29320;SDS011;16323;51.130;6.612;2022-12-05T10:36:09;12.27;;;6.60;;
29320;SDS011;16323;51.130;6.612;2022-12-05T10:38:37;11.40;;;6.68;;
29320;SDS011;16323;51.130;6.612;2022-12-05T10:41:07;10.52;;;6.20;;
29320;SDS011;16323;51.130;6.612;2022-12-05T10:43:35;10.68;;;6.22;;
29320;SDS011;16323;51.130;6.612;2022-12-05T10:46:04;8.98;;;5.70;;
29320;SDS011;16323;51.130;6.612;2022-12-05T10:48:33;9.45;;;5.95;;
29320;SDS011;16323;51.130;6.612;2022-12-05T10:51:02;11.00;;;6.45;;
29320;SDS011;16323;51.130;6.612;2022-12-05T10:53:31;9.00;;;5.68;;
29320;SDS011;16323;51.130;6.612;2022-12-05T10:56:08;9.30;;;6.25;;
29320;SDS011;16323;51.130;6.612;2022-12-05T10:59:03;9.43;;;5.82;;
29320;SDS011;16323;51.130;6.612;2022-12-05T11:01:31;9.15;;;5.70;;
29320;SDS011;16323;51.130;6.612;2022-12-05T11:03:58;7.30;;;5.10;;
29320;SDS011;16323;51.130;6.612;2022-12-05T11:06:27;7.40;;;5.10;;
29320;SDS011;16323;51.130;6.612;2022-12-05T11:08:56;9.25;;;5.57;;
29320;SDS011;16323;51.130;6.612;2022-12-05T11:11:26;8.30;;;5.15;;
29320;SDS011;16323;51.130;6.612;2022-12-05T11:13:54;7.80;;;5.10;;
29320;SDS011;16323;51.130;6.612;2022-12-05T11:16:25;8.27;;;5.20;;
29320;SDS011;16323;51.130;6.612;2022-12-05T11:18:53;7.60;;;5.00;;
29320;SDS011;16323;51.130;6.612;2022-12-05T11:21:20;8.07;;;5.03;;
29320;SDS011;16323;51.130;6.612;2022-12-05T11:23:48;7.72;;;4.68;;
29320;SDS011;16323;51.130;6.612;2022-12-05T11:26:18;6.75;;;4.60;;
29320;SDS011;16323;51.130;6.612;2022-12-05T11:29:00;6.97;;;4.32;;
29320;SDS011;16323;51.130;6.612;2022-12-05T11:31:27;6.05;;;4.10;;
29320;SDS011;16323;51.130;6.612;2022-12-05T11:34:09;6.63;;;4.45;;
29320;SDS011;16323;51.130;6.612;2022-12-05T11:36:42;6.53;;;4.47;;
29320;SDS011;16323;51.130;6.612;2022-12-05T11:39:15;6.10;;;4.07;;
29320;SDS011;16323;51.130;6.612;2022-12-05T11:41:46;7.88;;;4.50;;
29320;SDS011;16323;51.130;6.612;2022-12-05T11:44:39;5.97;;;3.80;;
29320;SDS011;16323;51.130;6.612;2022-12-05T11:47:31;7.70;;;4.20;;
29320;SDS011;16323;51.130;6.612;2022-12-05T11:50:11;5.78;;;4.22;;
29320;SDS011;16323;51.130;6.612;2022-12-05T11:52:51;6.78;;;3.92;;
29320;SDS011;16323;51.130;6.612;2022-12-05T11:55:27;7.03;;;4.40;;
29320;SDS011;16323;51.130;6.612;2022-12-05T11:58:04;5.55;;;3.78;;
29320;SDS011;16323;51.130;6.612;2022-12-05T12:00:46;6.32;;;3.78;;
29320;SDS011;16323;51.130;6.612;2022-12-05T12:03:32;4.85;;;3.15;;
29320;SDS011;16323;51.130;6.612;2022-12-05T12:06:26;6.07;;;4.15;;
29320;SDS011;16323;51.130;6.612;2022-12-05T12:09:03;6.07;;;3.92;;
29320;SDS011;16323;51.130;6.612;2022-12-05T12:11:42;6.30;;;3.95;;
29320;SDS011;16323;51.130;6.612;2022-12-05T12:14:16;6.05;;;3.75;;
29320;SDS011;16323;51.130;6.612;2022-12-05T12:16:52;4.20;;;3.40;;
29320;SDS011;16323;51.130;6.612;2022-12-05T12:19:30;6.53;;;3.70;;
29320;SDS011;16323;51.130;6.612;2022-12-05T12:22:13;4.97;;;3.63;;
29320;SDS011;16323;51.130;6.612;2022-12-05T12:25:00;4.90;;;3.53;;
29320;SDS011;16323;51.130;6.612;2022-12-05T12:27:41;5.55;;;3.65;;
29320;SDS011;16323;51.130;6.612;2022-12-05T12:30:19;5.07;;;3.35;;
29320;SDS011;16323;51.130;6.612;2022-12-05T12:32:53;4.80;;;3.30;;
29320;SDS011;16323;51.130;6.612;2022-12-05T12:35:27;5.45;;;3.80;;
29320;SDS011;16323;51.130;6.612;2022-12-05T12:38:16;4.88;;;3.53;;
29320;SDS011;16323;51.130;6.612;2022-12-05T12:40:58;5.47;;;3.40;;
29320;SDS011;16323;51.130;6.612;2022-12-05T12:43:36;4.90;;;3.28;;
29320;SDS011;16323;51.130;6.612;2022-12-05T12:46:15;4.28;;;3.05;;
29320;SDS011;16323;51.130;6.612;2022-12-05T12:48:54;5.65;;;3.45;;
29320;SDS011;16323;51.130;6.612;2022-12-05T12:51:30;4.65;;;3.22;;
29320;SDS011;16323;51.130;6.612;2022-12-05T12:54:06;4.45;;;3.30;;
29320;SDS011;16323;51.130;6.612;2022-12-05T12:56:47;4.00;;;2.97;;
29320;SDS011;16323;51.130;6.612;2022-12-05T12:59:28;4.60;;;2.75;;
29320;SDS011;16323;51.130;6.612;2022-12-05T13:02:12;5.10;;;3.25;;
29320;SDS011;16323;51.130;6.612;2022-12-05T13:04:46;4.47;;;2.45;;
29320;SDS011;16323;51.130;6.612;2022-12-05T13:07:17;3.58;;;2.90;;
29320;SDS011;16323;51.130;6.612;2022-12-05T13:09:49;3.60;;;3.00;;
29320;SDS011;16323;51.130;6.612;2022-12-05T13:12:21;4.38;;;2.97;;
29320;SDS011;16323;51.130;6.612;2022-12-05T13:14:53;3.67;;;3.08;;
29320;SDS011;16323;51.130;6.612;2022-12-05T13:17:25;5.13;;;3.20;;
29320;SDS011;16323;51.130;6.612;2022-12-05T13:19:54;3.80;;;2.67;;
29320;SDS011;16323;51.130;6.612;2022-12-05T13:22:22;3.90;;;3.00;;
29320;SDS011;16323;51.130;6.612;2022-12-05T13:24:51;3.65;;;2.50;;
29320;SDS011;16323;51.130;6.612;2022-12-05T13:27:19;3.85;;;2.72;;
29320;SDS011;16323;51.130;6.612;2022-12-05T13:29:49;3.67;;;2.70;;
29320;SDS011;16323;51.130;6.612;2022-12-05T13:32:23;3.88;;;2.65;;
29320;SDS011;16323;51.130;6.612;2022-12-05T13:34:54;4.03;;;2.90;;
29320;SDS011;16323;51.130;6.612;2022-12-05T13:37:23;3.15;;;2.50;;
29320;SDS011;16323;51.130;6.612;2022-12-05T13:40:23;4.53;;;2.83;;
29320;SDS011;16323;51.130;6.612;2022-12-05T13:43:11;3.28;;;2.70;;
29320;SDS011;16323;51.130;6.612;2022-12-05T13:45:39;3.65;;;2.42;;
29320;SDS011;16323;51.130;6.612;2022-12-05T13:48:13;4.55;;;2.78;;
29320;SDS011;16323;51.130;6.612;2022-12-05T13:50:48;3.03;;;2.30;;
29320;SDS011;16323;51.130;6.612;2022-12-05T13:53:21;4.50;;;2.85;;
29320;SDS011;16323;51.130;6.612;2022-12-05T13:55:54;3.22;;;2.55;;
29320;SDS011;16323;51.130;6.612;2022-12-05T13:58:36;2.92;;;2.63;;
29320;SDS011;16323;51.130;6.612;2022-12-05T14:04:40;3.83;;;2.42;;
29320;SDS011;16323;51.130;6.612;2022-12-05T14:07:13;3.03;;;2.30;;
29320;SDS011;16323;51.130;6.612;2022-12-05T14:10:06;3.45;;;2.30;;
29320;SDS011;16323;51.130;6.612;2022-12-05T14:12:51;3.08;;;2.50;;
29320;SDS011;16323;51.130;6.612;2022-12-05T14:15:23;3.70;;;2.60;;
29320;SDS011;16323;51.130;6.612;2022-12-05T14:17:54;3.67;;;2.50;;
29320;SDS011;16323;51.130;6.612;2022-12-05T14:20:24;4.38;;;2.60;;
29320;SDS011;16323;51.130;6.612;2022-12-05T14:23:04;3.70;;;2.78;;
29320;SDS011;16323;51.130;6.612;2022-12-05T14:25:52;5.05;;;2.72;;
29320;SDS011;16323;51.130;6.612;2022-12-05T14:31:31;3.63;;;2.75;;
29320;SDS011;16323;51.130;6.612;2022-12-05T14:34:14;2.83;;;2.50;;
29320;SDS011;16323;51.130;6.612;2022-12-05T14:36:58;3.00;;;2.30;;
29320;SDS011;16323;51.130;6.612;2022-12-05T14:39:32;3.42;;;2.42;;
29320;SDS011;16323;51.130;6.612;2022-12-05T14:42:06;3.08;;;2.20;;
29320;SDS011;16323;51.130;6.612;2022-12-05T14:44:46;3.70;;;2.60;;
29320;SDS011;16323;51.130;6.612;2022-12-05T14:47:16;3.65;;;2.50;;
29320;SDS011;16323;51.130;6.612;2022-12-05T14:49:50;4.03;;;2.40;;
29320;SDS011;16323;51.130;6.612;2022-12-05T14:52:21;2.65;;;2.33;;
29320;SDS011;16323;51.130;6.612;2022-12-05T14:54:50;4.55;;;2.70;;
29320;SDS011;16323;51.130;6.612;2022-12-05T14:57:19;3.38;;;2.40;;
29320;SDS011;16323;51.130;6.612;2022-12-05T14:59:48;3.30;;;2.38;;
29320;SDS011;16323;51.130;6.612;2022-12-05T15:02:19;3.65;;;2.30;;
29320;SDS011;16323;51.130;6.612;2022-12-05T15:04:51;3.63;;;2.53;;
29320;SDS011;16323;51.130;6.612;2022-12-05T15:07:25;3.47;;;2.67;;
29320;SDS011;16323;51.130;6.612;2022-12-05T15:09:56;2.85;;;2.22;;
29320;SDS011;16323;51.130;6.612;2022-12-05T15:12:26;3.10;;;2.45;;
29320;SDS011;16323;51.130;6.612;2022-12-05T15:15:03;3.28;;;2.45;;
29320;SDS011;16323;51.130;6.612;2022-12-05T15:17:36;4.00;;;3.00;;